sensor_id;sensor_type;location;lat;lon;timestamp;P1;durP1;ratioP1;P2;durP2;ratioP2
71080;SDS011;58740;50.672;18.690;2024-01-30T00:00:21;16.20;;;6.50;;
71080;SDS011;58740;50.672;18.690;2024-01-30T00:03:14;25.10;;;8.70;;
71080;SDS011;58740;50.672;18.690;2024-01-30T00:05:47;22.30;;;8.40;;
71080;SDS011;58740;50.672;18.690;2024-01-30T00:08:21;22.20;;;7.40;;
71080;SDS011;58740;50.672;18.690;2024-01-30T00:10:54;19.60;;;6.10;;
71080;SDS011;58740;50.672;18.690;2024-01-30T00:13:27;19.10;;;7.10;;
71080;SDS011;58740;50.672;18.690;2024-01-30T00:16:01;15.30;;;6.60;;
71080;SDS011;58740;50.672;18.690;2024-01-30T00:18:35;13.30;;;6.00;;
71080;SDS011;58740;50.672;18.690;2024-01-30T00:21:10;15.30;;;5.70;;
71080;SDS011;58740;50.672;18.690;2024-01-30T00:23:43;13.00;;;5.30;;
71080;SDS011;58740;50.672;18.690;2024-01-30T00:26:16;13.60;;;5.20;;
71080;SDS011;58740;50.672;18.690;2024-01-30T00:28:49;13.20;;;5.00;;
71080;SDS011;58740;50.672;18.690;2024-01-30T00:31:23;12.80;;;4.70;;
71080;SDS011;58740;50.672;18.690;2024-01-30T00:33:56;12.10;;;5.00;;
71080;SDS011;58740;50.672;18.690;2024-01-30T00:36:30;12.10;;;4.50;;
71080;SDS011;58740;50.672;18.690;2024-01-30T00:39:04;12.40;;;4.90;;
71080;SDS011;58740;50.672;18.690;2024-01-30T00:41:39;12.50;;;4.60;;
71080;SDS011;58740;50.672;18.690;2024-01-30T00:44:12;12.40;;;4.60;;
71080;SDS011;58740;50.672;18.690;2024-01-30T00:46:46;11.40;;;4.40;;
71080;SDS011;58740;50.672;18.690;2024-01-30T00:49:19;11.70;;;4.60;;
71080;SDS011;58740;50.672;18.690;2024-01-30T00:51:52;13.20;;;4.30;;
71080;SDS011;58740;50.672;18.690;2024-01-30T00:54:26;11.60;;;4.30;;
71080;SDS011;58740;50.672;18.690;2024-01-30T00:56:59;9.60;;;4.20;;
71080;SDS011;58740;50.672;18.690;2024-01-30T00:59:32;9.40;;;4.40;;
71080;SDS011;58740;50.672;18.690;2024-01-30T01:02:06;11.60;;;4.10;;
71080;SDS011;58740;50.672;18.690;2024-01-30T01:04:39;11.50;;;4.50;;
71080;SDS011;58740;50.672;18.690;2024-01-30T01:07:13;12.30;;;4.80;;
71080;SDS011;58740;50.672;18.690;2024-01-30T01:09:46;10.60;;;4.60;;
71080;SDS011;58740;50.672;18.690;2024-01-30T01:12:19;10.30;;;3.70;;
71080;SDS011;58740;50.672;18.690;2024-01-30T01:14:52;8.60;;;4.10;;
71080;SDS011;58740;50.672;18.690;2024-01-30T01:17:25;9.50;;;3.50;;
71080;SDS011;58740;50.672;18.690;2024-01-30T01:19:59;11.80;;;3.90;;
71080;SDS011;58740;50.672;18.690;2024-01-30T01:22:32;8.60;;;3.60;;
71080;SDS011;58740;50.672;18.690;2024-01-30T01:25:06;9.30;;;3.90;;
71080;SDS011;58740;50.672;18.690;2024-01-30T01:27:41;11.30;;;3.80;;
71080;SDS011;58740;50.672;18.690;2024-01-30T01:30:21;8.90;;;3.60;;
71080;SDS011;58740;50.672;18.690;2024-01-30T01:32:56;10.00;;;3.50;;
71080;SDS011;58740;50.672;18.690;2024-01-30T01:35:32;11.10;;;4.30;;
71080;SDS011;58740;50.672;18.690;2024-01-30T01:38:05;10.30;;;3.50;;
71080;SDS011;58740;50.672;18.690;2024-01-30T01:40:38;12.50;;;4.30;;
71080;SDS011;58740;50.672;18.690;2024-01-30T01:43:12;10.50;;;3.30;;
71080;SDS011;58740;50.672;18.690;2024-01-30T01:45:45;10.90;;;3.50;;
71080;SDS011;58740;50.672;18.690;2024-01-30T01:48:18;7.30;;;3.80;;
71080;SDS011;58740;50.672;18.690;2024-01-30T01:50:53;11.20;;;3.70;;
71080;SDS011;58740;50.672;18.690;2024-01-30T01:53:27;9.80;;;3.30;;
71080;SDS011;58740;50.672;18.690;2024-01-30T01:56:00;9.10;;;4.00;;
71080;SDS011;58740;50.672;18.690;2024-01-30T01:58:33;8.10;;;3.20;;
71080;SDS011;58740;50.672;18.690;2024-01-30T02:01:09;8.70;;;3.70;;
71080;SDS011;58740;50.672;18.690;2024-01-30T02:03:42;9.00;;;3.40;;
71080;SDS011;58740;50.672;18.690;2024-01-30T02:06:17;8.50;;;3.30;;
71080;SDS011;58740;50.672;18.690;2024-01-30T02:08:50;7.20;;;3.10;;
71080;SDS011;58740;50.672;18.690;2024-01-30T02:11:24;8.80;;;3.80;;
71080;SDS011;58740;50.672;18.690;2024-01-30T02:13:57;9.00;;;3.60;;
71080;SDS011;58740;50.672;18.690;2024-01-30T02:16:33;8.30;;;2.90;;
71080;SDS011;58740;50.672;18.690;2024-01-30T02:19:07;9.30;;;3.80;;
71080;SDS011;58740;50.672;18.690;2024-01-30T02:21:41;11.50;;;4.30;;
71080;SDS011;58740;50.672;18.690;2024-01-30T02:24:14;8.90;;;3.10;;
71080;SDS011;58740;50.672;18.690;2024-01-30T02:26:47;11.60;;;3.10;;
71080;SDS011;58740;50.672;18.690;2024-01-30T02:29:21;8.40;;;2.90;;
71080;SDS011;58740;50.672;18.690;2024-01-30T02:31:54;10.90;;;4.10;;
71080;SDS011;58740;50.672;18.690;2024-01-30T02:34:27;8.90;;;3.80;;
71080;SDS011;58740;50.672;18.690;2024-01-30T02:37:00;10.40;;;4.10;;
71080;SDS011;58740;50.672;18.690;2024-01-30T02:39:34;7.80;;;3.40;;
71080;SDS011;58740;50.672;18.690;2024-01-30T02:42:07;8.70;;;3.80;;
71080;SDS011;58740;50.672;18.690;2024-01-30T02:44:40;10.10;;;3.80;;
71080;SDS011;58740;50.672;18.690;2024-01-30T02:47:14;13.90;;;4.40;;
71080;SDS011;58740;50.672;18.690;2024-01-30T02:49:47;8.70;;;3.70;;
71080;SDS011;58740;50.672;18.690;2024-01-30T02:52:25;10.30;;;4.40;;
71080;SDS011;58740;50.672;18.690;2024-01-30T02:54:58;15.30;;;4.80;;
71080;SDS011;58740;50.672;18.690;2024-01-30T02:57:32;12.40;;;3.60;;
71080;SDS011;58740;50.672;18.690;2024-01-30T03:00:07;8.90;;;4.20;;
71080;SDS011;58740;50.672;18.690;2024-01-30T03:02:41;9.50;;;4.30;;
71080;SDS011;58740;50.672;18.690;2024-01-30T03:05:15;8.70;;;3.80;;
71080;SDS011;58740;50.672;18.690;2024-01-30T03:07:48;9.10;;;4.20;;
71080;SDS011;58740;50.672;18.690;2024-01-30T03:10:22;11.20;;;4.20;;
71080;SDS011;58740;50.672;18.690;2024-01-30T03:12:55;10.70;;;4.00;;
71080;SDS011;58740;50.672;18.690;2024-01-30T03:15:28;10.10;;;4.40;;
71080;SDS011;58740;50.672;18.690;2024-01-30T03:18:03;10.20;;;4.20;;
71080;SDS011;58740;50.672;18.690;2024-01-30T03:20:37;11.10;;;4.20;;
71080;SDS011;58740;50.672;18.690;2024-01-30T03:23:10;12.60;;;4.80;;
71080;SDS011;58740;50.672;18.690;2024-01-30T03:25:43;11.90;;;4.70;;
71080;SDS011;58740;50.672;18.690;2024-01-30T03:28:16;15.40;;;4.90;;
71080;SDS011;58740;50.672;18.690;2024-01-30T03:30:50;14.10;;;5.40;;
71080;SDS011;58740;50.672;18.690;2024-01-30T03:33:23;10.30;;;5.20;;
71080;SDS011;58740;50.672;18.690;2024-01-30T03:35:57;9.20;;;4.40;;
71080;SDS011;58740;50.672;18.690;2024-01-30T03:38:34;13.60;;;5.30;;
71080;SDS011;58740;50.672;18.690;2024-01-30T03:41:10;12.70;;;5.80;;
71080;SDS011;58740;50.672;18.690;2024-01-30T03:43:43;11.20;;;4.70;;
71080;SDS011;58740;50.672;18.690;2024-01-30T03:46:16;10.00;;;4.70;;
71080;SDS011;58740;50.672;18.690;2024-01-30T03:48:49;12.00;;;5.00;;
71080;SDS011;58740;50.672;18.690;2024-01-30T03:51:23;11.30;;;5.00;;
71080;SDS011;58740;50.672;18.690;2024-01-30T03:53:56;13.80;;;5.70;;
71080;SDS011;58740;50.672;18.690;2024-01-30T03:56:29;10.90;;;4.50;;
71080;SDS011;58740;50.672;18.690;2024-01-30T03:59:02;11.00;;;4.60;;
71080;SDS011;58740;50.672;18.690;2024-01-30T04:01:35;12.50;;;4.80;;
71080;SDS011;58740;50.672;18.690;2024-01-30T04:04:09;10.20;;;5.20;;
71080;SDS011;58740;50.672;18.690;2024-01-30T04:06:42;10.80;;;4.80;;
71080;SDS011;58740;50.672;18.690;2024-01-30T04:09:16;12.90;;;5.90;;
71080;SDS011;58740;50.672;18.690;2024-01-30T04:11:49;13.80;;;5.50;;
71080;SDS011;58740;50.672;18.690;2024-01-30T04:14:22;11.50;;;5.00;;
71080;SDS011;58740;50.672;18.690;2024-01-30T04:16:55;10.90;;;5.20;;
71080;SDS011;58740;50.672;18.690;2024-01-30T04:19:29;11.50;;;4.50;;
71080;SDS011;58740;50.672;18.690;2024-01-30T04:22:02;12.50;;;4.90;;
71080;SDS011;58740;50.672;18.690;2024-01-30T04:24:35;10.60;;;4.90;;
71080;SDS011;58740;50.672;18.690;2024-01-30T04:27:09;12.50;;;5.00;;
71080;SDS011;58740;50.672;18.690;2024-01-30T04:29:42;8.10;;;3.50;;
71080;SDS011;58740;50.672;18.690;2024-01-30T04:32:15;9.90;;;4.70;;
71080;SDS011;58740;50.672;18.690;2024-01-30T04:34:49;9.80;;;3.80;;
71080;SDS011;58740;50.672;18.690;2024-01-30T04:37:22;9.60;;;4.60;;
71080;SDS011;58740;50.672;18.690;2024-01-30T04:39:56;10.80;;;4.40;;
71080;SDS011;58740;50.672;18.690;2024-01-30T04:42:30;9.20;;;3.70;;
71080;SDS011;58740;50.672;18.690;2024-01-30T04:45:03;14.90;;;5.40;;
71080;SDS011;58740;50.672;18.690;2024-01-30T04:47:37;15.90;;;5.40;;
71080;SDS011;58740;50.672;18.690;2024-01-30T04:50:11;20.30;;;7.70;;
71080;SDS011;58740;50.672;18.690;2024-01-30T04:52:45;16.40;;;6.00;;
71080;SDS011;58740;50.672;18.690;2024-01-30T04:55:18;13.60;;;4.80;;
71080;SDS011;58740;50.672;18.690;2024-01-30T04:57:53;8.50;;;3.50;;
71080;SDS011;58740;50.672;18.690;2024-01-30T05:00:26;10.90;;;4.60;;
71080;SDS011;58740;50.672;18.690;2024-01-30T05:02:59;9.30;;;3.70;;
71080;SDS011;58740;50.672;18.690;2024-01-30T05:05:32;10.70;;;4.30;;
71080;SDS011;58740;50.672;18.690;2024-01-30T05:08:07;11.90;;;4.80;;
71080;SDS011;58740;50.672;18.690;2024-01-30T05:10:40;9.30;;;3.40;;
71080;SDS011;58740;50.672;18.690;2024-01-30T05:13:13;8.70;;;4.40;;
71080;SDS011;58740;50.672;18.690;2024-01-30T05:15:46;8.30;;;4.20;;
71080;SDS011;58740;50.672;18.690;2024-01-30T05:18:20;12.00;;;4.60;;
71080;SDS011;58740;50.672;18.690;2024-01-30T05:20:53;9.30;;;4.00;;
71080;SDS011;58740;50.672;18.690;2024-01-30T05:23:26;8.20;;;3.50;;
71080;SDS011;58740;50.672;18.690;2024-01-30T05:25:59;7.70;;;3.20;;
71080;SDS011;58740;50.672;18.690;2024-01-30T05:28:33;8.90;;;4.20;;
71080;SDS011;58740;50.672;18.690;2024-01-30T05:31:06;8.80;;;4.10;;
71080;SDS011;58740;50.672;18.690;2024-01-30T05:33:40;9.30;;;4.60;;
71080;SDS011;58740;50.672;18.690;2024-01-30T05:36:14;9.90;;;4.20;;
71080;SDS011;58740;50.672;18.690;2024-01-30T05:38:47;9.30;;;3.70;;
71080;SDS011;58740;50.672;18.690;2024-01-30T05:41:20;9.30;;;4.70;;
71080;SDS011;58740;50.672;18.690;2024-01-30T05:43:57;9.40;;;3.70;;
71080;SDS011;58740;50.672;18.690;2024-01-30T05:46:30;10.50;;;3.80;;
71080;SDS011;58740;50.672;18.690;2024-01-30T05:49:04;8.40;;;3.50;;
71080;SDS011;58740;50.672;18.690;2024-01-30T05:51:38;9.10;;;3.80;;
71080;SDS011;58740;50.672;18.690;2024-01-30T05:54:11;7.50;;;3.70;;
71080;SDS011;58740;50.672;18.690;2024-01-30T05:56:47;12.10;;;3.80;;
71080;SDS011;58740;50.672;18.690;2024-01-30T05:59:20;8.20;;;4.10;;
71080;SDS011;58740;50.672;18.690;2024-01-30T06:01:53;11.00;;;4.30;;
71080;SDS011;58740;50.672;18.690;2024-01-30T06:04:27;9.90;;;3.70;;
71080;SDS011;58740;50.672;18.690;2024-01-30T06:07:00;11.50;;;5.00;;
71080;SDS011;58740;50.672;18.690;2024-01-30T06:09:35;11.20;;;4.80;;
71080;SDS011;58740;50.672;18.690;2024-01-30T06:12:10;14.00;;;4.60;;
71080;SDS011;58740;50.672;18.690;2024-01-30T06:14:43;12.90;;;4.90;;
71080;SDS011;58740;50.672;18.690;2024-01-30T06:17:17;11.40;;;5.00;;
71080;SDS011;58740;50.672;18.690;2024-01-30T06:19:50;14.80;;;6.40;;
71080;SDS011;58740;50.672;18.690;2024-01-30T06:22:24;10.70;;;4.60;;
71080;SDS011;58740;50.672;18.690;2024-01-30T06:24:57;11.10;;;5.10;;
71080;SDS011;58740;50.672;18.690;2024-01-30T06:27:31;11.40;;;5.10;;
71080;SDS011;58740;50.672;18.690;2024-01-30T06:30:06;13.10;;;5.80;;
71080;SDS011;58740;50.672;18.690;2024-01-30T06:32:40;10.70;;;4.60;;
71080;SDS011;58740;50.672;18.690;2024-01-30T06:35:13;12.20;;;4.30;;
71080;SDS011;58740;50.672;18.690;2024-01-30T06:37:48;11.80;;;4.40;;
71080;SDS011;58740;50.672;18.690;2024-01-30T06:40:21;13.10;;;5.70;;
71080;SDS011;58740;50.672;18.690;2024-01-30T06:42:54;16.10;;;6.10;;
71080;SDS011;58740;50.672;18.690;2024-01-30T06:45:28;14.30;;;4.70;;
71080;SDS011;58740;50.672;18.690;2024-01-30T06:48:01;11.50;;;4.80;;
71080;SDS011;58740;50.672;18.690;2024-01-30T06:50:34;12.20;;;4.70;;
71080;SDS011;58740;50.672;18.690;2024-01-30T06:53:08;8.30;;;3.50;;
71080;SDS011;58740;50.672;18.690;2024-01-30T06:55:41;11.70;;;4.80;;
71080;SDS011;58740;50.672;18.690;2024-01-30T06:58:14;11.60;;;5.20;;
71080;SDS011;58740;50.672;18.690;2024-01-30T07:00:47;9.10;;;4.30;;
71080;SDS011;58740;50.672;18.690;2024-01-30T07:03:21;10.50;;;4.30;;
71080;SDS011;58740;50.672;18.690;2024-01-30T07:05:55;12.40;;;5.00;;
71080;SDS011;58740;50.672;18.690;2024-01-30T07:08:28;12.00;;;5.50;;
71080;SDS011;58740;50.672;18.690;2024-01-30T07:11:01;11.80;;;6.00;;
71080;SDS011;58740;50.672;18.690;2024-01-30T07:13:35;9.40;;;4.90;;
71080;SDS011;58740;50.672;18.690;2024-01-30T07:16:09;12.90;;;6.10;;
71080;SDS011;58740;50.672;18.690;2024-01-30T07:18:42;11.70;;;5.30;;
71080;SDS011;58740;50.672;18.690;2024-01-30T07:21:16;9.70;;;4.00;;
71080;SDS011;58740;50.672;18.690;2024-01-30T07:23:52;13.80;;;5.20;;
71080;SDS011;58740;50.672;18.690;2024-01-30T07:26:25;13.90;;;4.70;;
71080;SDS011;58740;50.672;18.690;2024-01-30T07:29:01;14.50;;;6.20;;
71080;SDS011;58740;50.672;18.690;2024-01-30T07:31:34;19.40;;;8.10;;
71080;SDS011;58740;50.672;18.690;2024-01-30T07:34:08;16.90;;;6.30;;
71080;SDS011;58740;50.672;18.690;2024-01-30T07:36:42;12.00;;;5.50;;
71080;SDS011;58740;50.672;18.690;2024-01-30T07:39:15;11.40;;;5.50;;
71080;SDS011;58740;50.672;18.690;2024-01-30T07:41:48;14.80;;;5.40;;
71080;SDS011;58740;50.672;18.690;2024-01-30T07:44:21;13.90;;;6.00;;
71080;SDS011;58740;50.672;18.690;2024-01-30T07:46:55;11.40;;;5.10;;
71080;SDS011;58740;50.672;18.690;2024-01-30T07:49:28;12.10;;;4.50;;
71080;SDS011;58740;50.672;18.690;2024-01-30T07:52:05;23.10;;;8.90;;
71080;SDS011;58740;50.672;18.690;2024-01-30T07:54:41;21.80;;;8.70;;
71080;SDS011;58740;50.672;18.690;2024-01-30T07:57:50;22.70;;;7.50;;
71080;SDS011;58740;50.672;18.690;2024-01-30T08:00:23;13.40;;;5.90;;
71080;SDS011;58740;50.672;18.690;2024-01-30T08:02:57;16.10;;;5.80;;
71080;SDS011;58740;50.672;18.690;2024-01-30T08:05:30;12.20;;;5.70;;
71080;SDS011;58740;50.672;18.690;2024-01-30T08:08:04;12.40;;;4.90;;
71080;SDS011;58740;50.672;18.690;2024-01-30T08:10:38;17.20;;;6.30;;
71080;SDS011;58740;50.672;18.690;2024-01-30T08:13:11;11.00;;;4.80;;
71080;SDS011;58740;50.672;18.690;2024-01-30T08:15:44;16.00;;;6.90;;
71080;SDS011;58740;50.672;18.690;2024-01-30T08:18:18;17.80;;;7.20;;
71080;SDS011;58740;50.672;18.690;2024-01-30T08:20:51;12.40;;;5.00;;
71080;SDS011;58740;50.672;18.690;2024-01-30T08:23:24;18.30;;;6.60;;
71080;SDS011;58740;50.672;18.690;2024-01-30T08:25:57;14.60;;;5.80;;
71080;SDS011;58740;50.672;18.690;2024-01-30T08:28:31;14.00;;;6.10;;
71080;SDS011;58740;50.672;18.690;2024-01-30T08:31:05;17.60;;;5.80;;
71080;SDS011;58740;50.672;18.690;2024-01-30T08:33:38;11.20;;;5.10;;
71080;SDS011;58740;50.672;18.690;2024-01-30T08:36:13;16.30;;;5.90;;
71080;SDS011;58740;50.672;18.690;2024-01-30T08:38:47;14.90;;;7.40;;
71080;SDS011;58740;50.672;18.690;2024-01-30T08:41:21;15.80;;;6.40;;
71080;SDS011;58740;50.672;18.690;2024-01-30T08:43:55;14.50;;;6.20;;
71080;SDS011;58740;50.672;18.690;2024-01-30T08:46:28;14.60;;;5.80;;
71080;SDS011;58740;50.672;18.690;2024-01-30T08:49:02;13.90;;;5.90;;
71080;SDS011;58740;50.672;18.690;2024-01-30T08:51:35;11.50;;;5.00;;
71080;SDS011;58740;50.672;18.690;2024-01-30T08:54:09;15.50;;;6.00;;
71080;SDS011;58740;50.672;18.690;2024-01-30T08:56:42;12.80;;;5.60;;
71080;SDS011;58740;50.672;18.690;2024-01-30T08:59:15;11.60;;;5.20;;
71080;SDS011;58740;50.672;18.690;2024-01-30T09:01:48;12.30;;;4.90;;
71080;SDS011;58740;50.672;18.690;2024-01-30T09:04:40;14.50;;;5.60;;
71080;SDS011;58740;50.672;18.690;2024-01-30T09:07:14;15.90;;;5.60;;
71080;SDS011;58740;50.672;18.690;2024-01-30T09:09:48;11.40;;;5.60;;
71080;SDS011;58740;50.672;18.690;2024-01-30T09:12:21;12.00;;;5.00;;
71080;SDS011;58740;50.672;18.690;2024-01-30T09:14:54;11.50;;;5.00;;
71080;SDS011;58740;50.672;18.690;2024-01-30T09:17:27;17.90;;;6.00;;
71080;SDS011;58740;50.672;18.690;2024-01-30T09:20:00;14.90;;;6.00;;
71080;SDS011;58740;50.672;18.690;2024-01-30T09:22:34;10.60;;;5.30;;
71080;SDS011;58740;50.672;18.690;2024-01-30T09:25:08;12.70;;;5.50;;
71080;SDS011;58740;50.672;18.690;2024-01-30T09:27:41;13.10;;;5.60;;
71080;SDS011;58740;50.672;18.690;2024-01-30T09:30:15;14.30;;;5.60;;
71080;SDS011;58740;50.672;18.690;2024-01-30T09:32:49;11.60;;;5.00;;
71080;SDS011;58740;50.672;18.690;2024-01-30T09:35:22;14.70;;;5.80;;
71080;SDS011;58740;50.672;18.690;2024-01-30T09:37:55;19.50;;;8.40;;
71080;SDS011;58740;50.672;18.690;2024-01-30T09:40:29;15.20;;;5.40;;
71080;SDS011;58740;50.672;18.690;2024-01-30T09:43:02;13.20;;;5.30;;
71080;SDS011;58740;50.672;18.690;2024-01-30T09:45:36;16.30;;;5.70;;
71080;SDS011;58740;50.672;18.690;2024-01-30T09:48:10;12.10;;;4.70;;
71080;SDS011;58740;50.672;18.690;2024-01-30T09:50:44;14.10;;;5.90;;
71080;SDS011;58740;50.672;18.690;2024-01-30T09:53:18;11.90;;;6.20;;
71080;SDS011;58740;50.672;18.690;2024-01-30T09:55:53;11.40;;;5.20;;
71080;SDS011;58740;50.672;18.690;2024-01-30T09:58:27;11.50;;;4.90;;
71080;SDS011;58740;50.672;18.690;2024-01-30T10:01:00;12.70;;;5.20;;
71080;SDS011;58740;50.672;18.690;2024-01-30T10:03:34;14.10;;;7.10;;
71080;SDS011;58740;50.672;18.690;2024-01-30T10:06:08;10.20;;;5.10;;
71080;SDS011;58740;50.672;18.690;2024-01-30T10:08:43;13.80;;;5.10;;
71080;SDS011;58740;50.672;18.690;2024-01-30T10:11:16;14.60;;;4.90;;
71080;SDS011;58740;50.672;18.690;2024-01-30T10:13:50;12.30;;;5.10;;
71080;SDS011;58740;50.672;18.690;2024-01-30T10:16:23;12.50;;;5.10;;
71080;SDS011;58740;50.672;18.690;2024-01-30T10:18:57;13.00;;;5.40;;
71080;SDS011;58740;50.672;18.690;2024-01-30T10:21:30;11.40;;;4.40;;
71080;SDS011;58740;50.672;18.690;2024-01-30T10:24:04;13.10;;;5.90;;
71080;SDS011;58740;50.672;18.690;2024-01-30T10:26:40;14.30;;;5.10;;
71080;SDS011;58740;50.672;18.690;2024-01-30T10:29:15;12.30;;;4.80;;
71080;SDS011;58740;50.672;18.690;2024-01-30T10:31:58;10.00;;;3.90;;
71080;SDS011;58740;50.672;18.690;2024-01-30T10:34:33;12.20;;;5.60;;
71080;SDS011;58740;50.672;18.690;2024-01-30T10:37:10;11.30;;;5.10;;
71080;SDS011;58740;50.672;18.690;2024-01-30T10:39:46;14.00;;;5.90;;
71080;SDS011;58740;50.672;18.690;2024-01-30T10:42:21;14.10;;;5.00;;
71080;SDS011;58740;50.672;18.690;2024-01-30T10:45:07;19.30;;;7.80;;
71080;SDS011;58740;50.672;18.690;2024-01-30T10:47:47;10.80;;;4.10;;
71080;SDS011;58740;50.672;18.690;2024-01-30T10:50:22;13.90;;;6.10;;
71080;SDS011;58740;50.672;18.690;2024-01-30T10:52:59;14.50;;;5.40;;
71080;SDS011;58740;50.672;18.690;2024-01-30T10:55:35;14.50;;;5.80;;
71080;SDS011;58740;50.672;18.690;2024-01-30T10:58:11;15.80;;;6.60;;
71080;SDS011;58740;50.672;18.690;2024-01-30T11:00:45;16.50;;;5.20;;
71080;SDS011;58740;50.672;18.690;2024-01-30T11:03:21;12.30;;;4.70;;
71080;SDS011;58740;50.672;18.690;2024-01-30T11:06:00;12.50;;;4.60;;
71080;SDS011;58740;50.672;18.690;2024-01-30T11:08:34;11.90;;;5.00;;
71080;SDS011;58740;50.672;18.690;2024-01-30T11:11:10;10.10;;;4.50;;
71080;SDS011;58740;50.672;18.690;2024-01-30T11:13:51;10.20;;;4.20;;
71080;SDS011;58740;50.672;18.690;2024-01-30T11:16:33;11.90;;;4.90;;
71080;SDS011;58740;50.672;18.690;2024-01-30T11:19:11;13.90;;;5.50;;
71080;SDS011;58740;50.672;18.690;2024-01-30T11:21:45;12.40;;;4.70;;
71080;SDS011;58740;50.672;18.690;2024-01-30T11:24:24;12.30;;;4.20;;
71080;SDS011;58740;50.672;18.690;2024-01-30T11:26:58;14.60;;;5.90;;
71080;SDS011;58740;50.672;18.690;2024-01-30T11:29:32;11.00;;;4.60;;
71080;SDS011;58740;50.672;18.690;2024-01-30T11:32:08;10.50;;;3.60;;
71080;SDS011;58740;50.672;18.690;2024-01-30T11:34:43;9.90;;;4.30;;
71080;SDS011;58740;50.672;18.690;2024-01-30T11:37:17;8.50;;;3.80;;
71080;SDS011;58740;50.672;18.690;2024-01-30T11:39:54;11.20;;;4.50;;
71080;SDS011;58740;50.672;18.690;2024-01-30T11:42:28;9.80;;;4.60;;
71080;SDS011;58740;50.672;18.690;2024-01-30T11:45:02;8.90;;;4.50;;
71080;SDS011;58740;50.672;18.690;2024-01-30T11:47:37;9.40;;;4.40;;
71080;SDS011;58740;50.672;18.690;2024-01-30T11:50:14;9.80;;;3.90;;
71080;SDS011;58740;50.672;18.690;2024-01-30T11:52:49;10.10;;;4.30;;
71080;SDS011;58740;50.672;18.690;2024-01-30T11:55:23;10.00;;;4.30;;
71080;SDS011;58740;50.672;18.690;2024-01-30T11:57:58;8.50;;;4.20;;
71080;SDS011;58740;50.672;18.690;2024-01-30T12:00:32;11.00;;;4.40;;
71080;SDS011;58740;50.672;18.690;2024-01-30T12:03:06;10.70;;;4.20;;
71080;SDS011;58740;50.672;18.690;2024-01-30T12:05:42;7.50;;;3.40;;
71080;SDS011;58740;50.672;18.690;2024-01-30T12:08:17;11.40;;;4.10;;
71080;SDS011;58740;50.672;18.690;2024-01-30T12:10:57;9.30;;;3.90;;
71080;SDS011;58740;50.672;18.690;2024-01-30T12:13:33;7.70;;;3.50;;
71080;SDS011;58740;50.672;18.690;2024-01-30T12:16:07;7.80;;;3.70;;
71080;SDS011;58740;50.672;18.690;2024-01-30T12:18:41;10.10;;;3.80;;
71080;SDS011;58740;50.672;18.690;2024-01-30T12:21:17;9.80;;;3.90;;
71080;SDS011;58740;50.672;18.690;2024-01-30T12:23:50;9.10;;;3.70;;
71080;SDS011;58740;50.672;18.690;2024-01-30T12:26:24;10.80;;;4.00;;
71080;SDS011;58740;50.672;18.690;2024-01-30T12:28:58;11.20;;;4.50;;
71080;SDS011;58740;50.672;18.690;2024-01-30T12:31:33;9.90;;;3.70;;
71080;SDS011;58740;50.672;18.690;2024-01-30T12:34:07;9.50;;;3.90;;
71080;SDS011;58740;50.672;18.690;2024-01-30T12:36:40;10.40;;;4.40;;
71080;SDS011;58740;50.672;18.690;2024-01-30T12:39:14;12.10;;;3.80;;
71080;SDS011;58740;50.672;18.690;2024-01-30T12:41:47;10.40;;;4.00;;
71080;SDS011;58740;50.672;18.690;2024-01-30T12:44:20;13.10;;;5.00;;
71080;SDS011;58740;50.672;18.690;2024-01-30T12:46:56;11.00;;;4.30;;
71080;SDS011;58740;50.672;18.690;2024-01-30T12:49:29;11.50;;;5.30;;
71080;SDS011;58740;50.672;18.690;2024-01-30T12:52:02;11.40;;;4.60;;
71080;SDS011;58740;50.672;18.690;2024-01-30T12:54:36;11.20;;;4.40;;
71080;SDS011;58740;50.672;18.690;2024-01-30T12:57:10;8.00;;;3.90;;
71080;SDS011;58740;50.672;18.690;2024-01-30T12:59:44;11.10;;;5.70;;
71080;SDS011;58740;50.672;18.690;2024-01-30T13:02:18;9.80;;;4.30;;
71080;SDS011;58740;50.672;18.690;2024-01-30T13:04:53;11.10;;;4.70;;
71080;SDS011;58740;50.672;18.690;2024-01-30T13:07:27;10.80;;;3.90;;
71080;SDS011;58740;50.672;18.690;2024-01-30T13:10:00;8.10;;;3.80;;
71080;SDS011;58740;50.672;18.690;2024-01-30T13:12:34;10.60;;;4.40;;
71080;SDS011;58740;50.672;18.690;2024-01-30T13:15:09;12.10;;;3.90;;
71080;SDS011;58740;50.672;18.690;2024-01-30T13:17:43;9.70;;;3.30;;
71080;SDS011;58740;50.672;18.690;2024-01-30T13:20:17;8.60;;;4.00;;
71080;SDS011;58740;50.672;18.690;2024-01-30T13:22:51;9.40;;;3.20;;
71080;SDS011;58740;50.672;18.690;2024-01-30T13:25:25;7.20;;;3.30;;
71080;SDS011;58740;50.672;18.690;2024-01-30T13:27:58;11.70;;;4.70;;
71080;SDS011;58740;50.672;18.690;2024-01-30T13:30:32;9.40;;;4.10;;
71080;SDS011;58740;50.672;18.690;2024-01-30T13:33:06;13.60;;;4.60;;
71080;SDS011;58740;50.672;18.690;2024-01-30T13:35:39;9.90;;;3.80;;
71080;SDS011;58740;50.672;18.690;2024-01-30T13:38:13;15.50;;;6.10;;
71080;SDS011;58740;50.672;18.690;2024-01-30T13:40:46;15.70;;;6.70;;
71080;SDS011;58740;50.672;18.690;2024-01-30T13:43:20;8.90;;;4.50;;
71080;SDS011;58740;50.672;18.690;2024-01-30T13:45:53;11.60;;;4.80;;
71080;SDS011;58740;50.672;18.690;2024-01-30T13:48:27;9.40;;;3.70;;
71080;SDS011;58740;50.672;18.690;2024-01-30T13:51:01;12.30;;;5.50;;
71080;SDS011;58740;50.672;18.690;2024-01-30T13:53:34;15.50;;;6.50;;
71080;SDS011;58740;50.672;18.690;2024-01-30T13:56:08;11.60;;;4.80;;
71080;SDS011;58740;50.672;18.690;2024-01-30T13:58:41;12.40;;;5.10;;
71080;SDS011;58740;50.672;18.690;2024-01-30T14:01:15;16.50;;;8.50;;
71080;SDS011;58740;50.672;18.690;2024-01-30T14:03:48;8.40;;;3.90;;
71080;SDS011;58740;50.672;18.690;2024-01-30T14:06:22;14.80;;;5.10;;
71080;SDS011;58740;50.672;18.690;2024-01-30T14:08:55;13.30;;;5.60;;
71080;SDS011;58740;50.672;18.690;2024-01-30T14:11:37;15.70;;;5.30;;
71080;SDS011;58740;50.672;18.690;2024-01-30T14:14:11;13.00;;;5.50;;
71080;SDS011;58740;50.672;18.690;2024-01-30T14:16:47;14.30;;;6.10;;
71080;SDS011;58740;50.672;18.690;2024-01-30T14:19:21;8.80;;;4.30;;
71080;SDS011;58740;50.672;18.690;2024-01-30T14:21:55;11.70;;;5.10;;
71080;SDS011;58740;50.672;18.690;2024-01-30T14:24:28;12.40;;;5.10;;
71080;SDS011;58740;50.672;18.690;2024-01-30T14:27:01;10.60;;;5.30;;
71080;SDS011;58740;50.672;18.690;2024-01-30T14:29:35;12.70;;;5.50;;
71080;SDS011;58740;50.672;18.690;2024-01-30T14:32:09;10.90;;;5.10;;
71080;SDS011;58740;50.672;18.690;2024-01-30T14:34:42;11.00;;;5.30;;
71080;SDS011;58740;50.672;18.690;2024-01-30T14:37:16;10.10;;;4.80;;
71080;SDS011;58740;50.672;18.690;2024-01-30T14:39:49;12.60;;;5.00;;
71080;SDS011;58740;50.672;18.690;2024-01-30T14:42:22;12.10;;;5.50;;
71080;SDS011;58740;50.672;18.690;2024-01-30T14:44:56;12.90;;;5.30;;
71080;SDS011;58740;50.672;18.690;2024-01-30T14:47:29;13.50;;;5.10;;
71080;SDS011;58740;50.672;18.690;2024-01-30T14:50:03;11.90;;;4.20;;
71080;SDS011;58740;50.672;18.690;2024-01-30T14:52:39;13.10;;;5.50;;
71080;SDS011;58740;50.672;18.690;2024-01-30T14:55:12;15.80;;;6.30;;
71080;SDS011;58740;50.672;18.690;2024-01-30T14:57:46;19.70;;;6.20;;
71080;SDS011;58740;50.672;18.690;2024-01-30T15:00:20;18.40;;;7.10;;
71080;SDS011;58740;50.672;18.690;2024-01-30T15:02:53;13.70;;;5.50;;
71080;SDS011;58740;50.672;18.690;2024-01-30T15:05:27;15.80;;;5.40;;